Nathalie — OJLP — position and weather

sailwx.info

Track history (hours):
 
Tides and Currents Weather Stations Pressure Air Temp Water Temp Dewpoint Dewpoint Depression Visibility Wind Speed Wind Dir Waves Ship Positions

Nathalie

Last reported at 2016-Jul-30 04:11 UTC. Time now 2016-Jul-30 16:55 UTC.
Position N 55°45' E 015°48'.

Length 64 m; draft 3.5 m.

Type: Cargo ship. MMSI: 230987660.

Date/timePositionNaut miles runAvg speedWind from/ knotsBaromVisibWave heightAir tempDewpointWater temp
2016-Jul-30 04:11N 55°45' E 015°48'16 9.1
2016-Jul-30 02:23N 55°37' E 015°23'8 9.1
2016-Jul-30 01:33N 55°34' E 015°11'9 9.3
2016-Jul-30 00:33N 55°29' E 014°57'9 9.4
2016-Jul-29 23:34N 55°24' E 014°43'9 9.3
2016-Jul-29 22:34N 55°18' E 014°31'9 9.4
2016-Jul-29 21:33N 55°12' E 014°19'9 9.2
2016-Jul-29 20:33N 55°11' E 014°03'30 9.0
2016-Jul-29 17:17N 55°14' E 013°11'6 8.9
2016-Jul-29 16:33N 55°15' E 012°60'9 8.9
2016-Jul-29 15:33N 55°17' E 012°45'7 7.1
2016-Jul-29 14:33N 55°23' E 012°40'8 8.2
2016-Jul-29 13:34N 55°31' E 012°41'7 7.4
2016-Jul-29 12:33N 55°39' E 012°41'8 8.0
2016-Jul-29 11:33N 55°47' E 012°41'8 8.4
2016-Jul-29 10:33N 55°55' E 012°38'8 7.9
2016-Jul-29 09:33N 56°03' E 012°38'8 8.0
2016-Jul-29 08:33N 56°08' E 012°28'8 8.3
2016-Jul-29 07:33N 56°14' E 012°17'81 8.0
2016-Jul-28 21:24N 56°59' E 010°14'7 8.6
2016-Jul-28 20:34N 57°03' E 010°04'6 5.7
2016-Jul-28 19:33N 57°04' E 009°53'7 6.7
2016-Jul-28 18:30N 57°02' E 009°40'1 0.2
2016-Jul-28 10:11N 57°02' E 009°38'5 8.0
2016-Jul-28 09:33N 57°04' E 009°46'6 5.9
2016-Jul-28 08:31N 57°03' E 009°57'0 0.0
2016-Jul-28 07:31N 57°03' E 009°57'0 0.0
2016-Jul-28 06:31N 57°03' E 009°57'0 0.0
2016-Jul-28 05:31N 57°03' E 009°57'0 0.0
2016-Jul-28 04:31N 57°03' E 009°57'0 0.0
2016-Jul-28 03:31N 57°03' E 009°57'0 0.0
2016-Jul-28 02:31N 57°03' E 009°57'0 0.0
2016-Jul-28 01:31N 57°03' E 009°57'0 0.0
2016-Jul-28 00:33N 57°03' E 009°57'0 0.0
2016-Jul-27 23:30N 57°03' E 009°57'0 0.0
2016-Jul-27 22:21N 57°03' E 009°57'0 0.0
2016-Jul-27 21:33N 57°03' E 009°57'0 0.0
2016-Jul-27 20:33N 57°03' E 009°57'0 0.0
2016-Jul-27 19:33N 57°03' E 009°57'0 0.0
2016-Jul-27 18:33N 57°03' E 009°57'0 0.0
2016-Jul-27 17:33N 57°03' E 009°57'3 2.8
2016-Jul-27 16:34N 57°05' E 010°01'9 8.8
2016-Jul-27 15:33N 56°59' E 010°14'92 9.2
2016-Jul-27 05:33N 56°08' E 012°32'10 9.8
2016-Jul-27 04:33N 55°60' E 012°42'9 9.1
2016-Jul-27 03:33N 55°50' E 012°44'10 9.6
2016-Jul-27 02:33N 55°41' E 012°41'9 8.9
2016-Jul-27 01:33N 55°32' E 012°43'9 9.4
2016-Jul-27 00:33N 55°23' E 012°42'8 7.9
2016-Jul-26 23:33N 55°17' E 012°51'10 9.6
2016-Jul-26 22:33N 55°15' E 013°07'10 9.6
2016-Jul-26 21:33N 55°14' E 013°24'9 9.4
2016-Jul-26 20:33N 55°13' E 013°41'10 9.5
2016-Jul-26 19:33N 55°12' E 013°57'9 9.2
2016-Jul-26 18:33N 55°11' E 014°13'8 8.5
2016-Jul-26 17:33N 55°08' E 014°27'8 8.4
2016-Jul-26 16:33N 55°06' E 014°41'0 0.3
2016-Jul-26 15:32N 55°06' E 014°42'0 0.0
2016-Jul-26 14:29N 55°06' E 014°42'0 0.0
2016-Jul-26 13:32N 55°06' E 014°42'0 0.0
2016-Jul-26 12:29N 55°06' E 014°42'0 0.0
2016-Jul-26 11:23N 55°06' E 014°42'0 0.0
2016-Jul-26 10:32N 55°06' E 014°42'0 0.0
2016-Jul-26 09:32N 55°06' E 014°42'0 0.0
2016-Jul-26 08:32N 55°06' E 014°42'0 0.0
2016-Jul-26 07:32N 55°06' E 014°42'0 0.0
2016-Jul-26 06:32N 55°06' E 014°42'0 0.0
2016-Jul-26 05:32N 55°06' E 014°42'0 0.0
2016-Jul-26 04:32N 55°06' E 014°42'0 0.0
2016-Jul-26 03:32N 55°06' E 014°42'0 0.0
2016-Jul-26 02:29N 55°06' E 014°42'0 0.0
2016-Jul-26 01:32N 55°06' E 014°42'0 0.0
2016-Jul-26 00:32N 55°06' E 014°42'0 0.0
2016-Jul-25 23:32N 55°06' E 014°42'0 0.0
2016-Jul-25 22:32N 55°06' E 014°42'0 0.0
2016-Jul-25 21:32N 55°06' E 014°42'0 0.0
2016-Jul-25 20:32N 55°06' E 014°42'0 0.0
2016-Jul-25 19:29N 55°06' E 014°42'0 0.0
2016-Jul-25 18:32N 55°06' E 014°42'0 0.0
2016-Jul-25 17:28N 55°06' E 014°42'0 0.0
2016-Jul-25 16:31N 55°06' E 014°42'0 0.0
2016-Jul-25 15:28N 55°06' E 014°42'0 0.0
2016-Jul-25 14:28N 55°06' E 014°42'0 0.0
2016-Jul-25 13:28N 55°06' E 014°42'0 0.0
2016-Jul-25 12:31N 55°06' E 014°42'0 0.0
2016-Jul-25 11:28N 55°06' E 014°42'0 0.0
2016-Jul-25 10:28N 55°06' E 014°42'0 0.1
2016-Jul-25 09:31N 55°06' E 014°42'0 0.0
2016-Jul-25 08:31N 55°06' E 014°42'0 0.0
2016-Jul-25 07:31N 55°06' E 014°42'0 0.0
2016-Jul-25 06:31N 55°06' E 014°42'0 0.1
2016-Jul-25 05:28N 55°06' E 014°42'0 0.0
2016-Jul-25 04:31N 55°06' E 014°42'0 0.0
2016-Jul-25 03:31N 55°06' E 014°42'0 0.0
2016-Jul-25 02:31N 55°06' E 014°42'0 0.0
2016-Jul-25 01:31N 55°06' E 014°42'0 0.0
2016-Jul-25 00:31N 55°06' E 014°42'0 0.0
2016-Jul-24 23:31N 55°06' E 014°42'0 0.0
2016-Jul-24 22:31N 55°06' E 014°42'0 0.0
2016-Jul-24 21:31N 55°06' E 014°42'0 0.0
2016-Jul-24 20:31N 55°06' E 014°42'0 0.0
2016-Jul-24 19:31N 55°06' E 014°42'0 0.0
2016-Jul-24 18:28N 55°06' E 014°42'0 0.0
2016-Jul-24 17:31N 55°06' E 014°42'0 0.0
2016-Jul-24 16:31N 55°06' E 014°42'0 0.0
2016-Jul-24 15:31N 55°06' E 014°42'0 0.0
2016-Jul-24 14:31N 55°06' E 014°42'0 0.0
2016-Jul-24 13:31N 55°06' E 014°42'0 0.0
2016-Jul-24 12:31N 55°06' E 014°42'0 0.0
2016-Jul-24 11:28N 55°06' E 014°42'0 0.0
2016-Jul-24 10:31N 55°06' E 014°42'0 0.0
2016-Jul-24 09:31N 55°06' E 014°42'0 0.0
2016-Jul-24 08:28N 55°06' E 014°42'0 0.0
2016-Jul-24 07:34N 55°06' E 014°42'0 0.0
2016-Jul-24 06:33N 55°06' E 014°42'0 0.0
2016-Jul-24 05:33N 55°06' E 014°42'0 0.0
2016-Jul-24 04:33N 55°06' E 014°42'0 0.0
2016-Jul-24 03:33N 55°06' E 014°42'0 0.0
2016-Jul-24 02:33N 55°06' E 014°42'0 0.0
2016-Jul-24 01:33N 55°06' E 014°42'0 0.0
2016-Jul-24 00:33N 55°06' E 014°42'0 0.0
2016-Jul-23 23:33N 55°06' E 014°42'0 0.0
2016-Jul-23 22:33N 55°06' E 014°42'0 0.0
2016-Jul-23 21:33N 55°06' E 014°42'0 0.0
2016-Jul-23 20:33N 55°06' E 014°42'0 0.0
2016-Jul-23 19:33N 55°06' E 014°42'0 0.0
2016-Jul-23 18:33N 55°06' E 014°42'0 0.0
2016-Jul-23 17:33N 55°06' E 014°42'0 0.0
2016-Jul-23 16:33N 55°06' E 014°42'0 0.0
2016-Jul-23 15:33N 55°06' E 014°42'0 0.0
2016-Jul-23 14:33N 55°06' E 014°42'0 0.0
2016-Jul-23 13:33N 55°06' E 014°42'0 0.0
2016-Jul-23 12:33N 55°06' E 014°42'0 0.0
2016-Jul-23 11:33N 55°06' E 014°42'0 0.0
2016-Jul-23 10:33N 55°06' E 014°42'0 0.0
2016-Jul-23 09:33N 55°06' E 014°42'0 0.0
2016-Jul-23 08:33N 55°06' E 014°42'0 0.0
2016-Jul-23 07:33N 55°06' E 014°42'0 0.0
2016-Jul-23 06:33N 55°06' E 014°42'5 2.3
2016-Jul-23 04:33N 55°01' E 014°45'8 8.3
2016-Jul-23 03:33N 54°59' E 014°58'8 7.9
2016-Jul-23 02:33N 54°59' E 015°12'8 8.1
2016-Jul-23 01:33N 55°03' E 015°24'8 8.1
2016-Jul-23 00:33N 55°08' E 015°35'9 8.3
2016-Jul-22 23:32N 55°13' E 015°48'  
2016-Jul-20 14:17N 59°30' E 023°55'19 9.7
2016-Jul-20 12:21N 59°38' E 024°28'8 9.9
2016-Jul-20 11:32N 59°38' E 024°44'  
Track history (hours):
 
Tides and Currents Weather Stations Pressure Air Temp Water Temp Dewpoint Dewpoint Depression Visibility Wind Speed Wind Dir Waves Ship Positions

Nathalie

Last reported at 2016-Jul-30 04:11 UTC. Time now 2016-Jul-30 16:55 UTC.
Position N 55°45' E 015°48'.

Length 64 m; draft 3.5 m.

Type: Cargo ship. MMSI: 230987660.

Date/timePositionNaut miles runAvg speedWind from/ knotsBaromVisibWave heightAir tempDewpointWater temp
2016-Jul-30 04:11N 55°45' E 015°48'16 9.1
2016-Jul-30 02:23N 55°37' E 015°23'8 9.1
2016-Jul-30 01:33N 55°34' E 015°11'9 9.3
2016-Jul-30 00:33N 55°29' E 014°57'9 9.4
2016-Jul-29 23:34N 55°24' E 014°43'9 9.3
2016-Jul-29 22:34N 55°18' E 014°31'9 9.4
2016-Jul-29 21:33N 55°12' E 014°19'9 9.2
2016-Jul-29 20:33N 55°11' E 014°03'30 9.0
2016-Jul-29 17:17N 55°14' E 013°11'6 8.9
2016-Jul-29 16:33N 55°15' E 012°60'9 8.9
2016-Jul-29 15:33N 55°17' E 012°45'7 7.1
2016-Jul-29 14:33N 55°23' E 012°40'8 8.2
2016-Jul-29 13:34N 55°31' E 012°41'7 7.4
2016-Jul-29 12:33N 55°39' E 012°41'8 8.0
2016-Jul-29 11:33N 55°47' E 012°41'8 8.4
2016-Jul-29 10:33N 55°55' E 012°38'8 7.9
2016-Jul-29 09:33N 56°03' E 012°38'8 8.0
2016-Jul-29 08:33N 56°08' E 012°28'8 8.3
2016-Jul-29 07:33N 56°14' E 012°17'81 8.0
2016-Jul-28 21:24N 56°59' E 010°14'7 8.6
2016-Jul-28 20:34N 57°03' E 010°04'6 5.7
2016-Jul-28 19:33N 57°04' E 009°53'7 6.7
2016-Jul-28 18:30N 57°02' E 009°40'1 0.2
2016-Jul-28 10:11N 57°02' E 009°38'5 8.0
2016-Jul-28 09:33N 57°04' E 009°46'6 5.9
2016-Jul-28 08:31N 57°03' E 009°57'0 0.0
2016-Jul-28 07:31N 57°03' E 009°57'0 0.0
2016-Jul-28 06:31N 57°03' E 009°57'0 0.0
2016-Jul-28 05:31N 57°03' E 009°57'0 0.0
2016-Jul-28 04:31N 57°03' E 009°57'0 0.0
2016-Jul-28 03:31N 57°03' E 009°57'0 0.0
2016-Jul-28 02:31N 57°03' E 009°57'0 0.0
2016-Jul-28 01:31N 57°03' E 009°57'0 0.0
2016-Jul-28 00:33N 57°03' E 009°57'0 0.0
2016-Jul-27 23:30N 57°03' E 009°57'0 0.0
2016-Jul-27 22:21N 57°03' E 009°57'0 0.0
2016-Jul-27 21:33N 57°03' E 009°57'0 0.0
2016-Jul-27 20:33N 57°03' E 009°57'0 0.0
2016-Jul-27 19:33N 57°03' E 009°57'0 0.0
2016-Jul-27 18:33N 57°03' E 009°57'0 0.0
2016-Jul-27 17:33N 57°03' E 009°57'3 2.8
2016-Jul-27 16:34N 57°05' E 010°01'9 8.8
2016-Jul-27 15:33N 56°59' E 010°14'92 9.2
2016-Jul-27 05:33N 56°08' E 012°32'10 9.8
2016-Jul-27 04:33N 55°60' E 012°42'9 9.1
2016-Jul-27 03:33N 55°50' E 012°44'10 9.6
2016-Jul-27 02:33N 55°41' E 012°41'9 8.9
2016-Jul-27 01:33N 55°32' E 012°43'9 9.4
2016-Jul-27 00:33N 55°23' E 012°42'8 7.9
2016-Jul-26 23:33N 55°17' E 012°51'10 9.6
2016-Jul-26 22:33N 55°15' E 013°07'10 9.6
2016-Jul-26 21:33N 55°14' E 013°24'9 9.4
2016-Jul-26 20:33N 55°13' E 013°41'10 9.5
2016-Jul-26 19:33N 55°12' E 013°57'9 9.2
2016-Jul-26 18:33N 55°11' E 014°13'8 8.5
2016-Jul-26 17:33N 55°08' E 014°27'8 8.4
2016-Jul-26 16:33N 55°06' E 014°41'0 0.3
2016-Jul-26 15:32N 55°06' E 014°42'0 0.0
2016-Jul-26 14:29N 55°06' E 014°42'0 0.0
2016-Jul-26 13:32N 55°06' E 014°42'0 0.0
2016-Jul-26 12:29N 55°06' E 014°42'0 0.0
2016-Jul-26 11:23N 55°06' E 014°42'0 0.0
2016-Jul-26 10:32N 55°06' E 014°42'0 0.0
2016-Jul-26 09:32N 55°06' E 014°42'0 0.0
2016-Jul-26 08:32N 55°06' E 014°42'0 0.0
2016-Jul-26 07:32N 55°06' E 014°42'0 0.0
2016-Jul-26 06:32N 55°06' E 014°42'0 0.0
2016-Jul-26 05:32N 55°06' E 014°42'0 0.0
2016-Jul-26 04:32N 55°06' E 014°42'0 0.0
2016-Jul-26 03:32N 55°06' E 014°42'0 0.0
2016-Jul-26 02:29N 55°06' E 014°42'0 0.0
2016-Jul-26 01:32N 55°06' E 014°42'0 0.0
2016-Jul-26 00:32N 55°06' E 014°42'0 0.0
2016-Jul-25 23:32N 55°06' E 014°42'0 0.0
2016-Jul-25 22:32N 55°06' E 014°42'0 0.0
2016-Jul-25 21:32N 55°06' E 014°42'0 0.0
2016-Jul-25 20:32N 55°06' E 014°42'0 0.0
2016-Jul-25 19:29N 55°06' E 014°42'0 0.0
2016-Jul-25 18:32N 55°06' E 014°42'0 0.0
2016-Jul-25 17:28N 55°06' E 014°42'0 0.0
2016-Jul-25 16:31N 55°06' E 014°42'0 0.0
2016-Jul-25 15:28N 55°06' E 014°42'0 0.0
2016-Jul-25 14:28N 55°06' E 014°42'0 0.0
2016-Jul-25 13:28N 55°06' E 014°42'0 0.0
2016-Jul-25 12:31N 55°06' E 014°42'0 0.0
2016-Jul-25 11:28N 55°06' E 014°42'0 0.0
2016-Jul-25 10:28N 55°06' E 014°42'0 0.1
2016-Jul-25 09:31N 55°06' E 014°42'0 0.0
2016-Jul-25 08:31N 55°06' E 014°42'0 0.0
2016-Jul-25 07:31N 55°06' E 014°42'0 0.0
2016-Jul-25 06:31N 55°06' E 014°42'0 0.1
2016-Jul-25 05:28N 55°06' E 014°42'0 0.0
2016-Jul-25 04:31N 55°06' E 014°42'0 0.0
2016-Jul-25 03:31N 55°06' E 014°42'0 0.0
2016-Jul-25 02:31N 55°06' E 014°42'0 0.0
2016-Jul-25 01:31N 55°06' E 014°42'0 0.0
2016-Jul-25 00:31N 55°06' E 014°42'0 0.0
2016-Jul-24 23:31N 55°06' E 014°42'0 0.0
2016-Jul-24 22:31N 55°06' E 014°42'0 0.0
2016-Jul-24 21:31N 55°06' E 014°42'0 0.0
2016-Jul-24 20:31N 55°06' E 014°42'0 0.0
2016-Jul-24 19:31N 55°06' E 014°42'0 0.0
2016-Jul-24 18:28N 55°06' E 014°42'0 0.0
2016-Jul-24 17:31N 55°06' E 014°42'0 0.0
2016-Jul-24 16:31N 55°06' E 014°42'0 0.0
2016-Jul-24 15:31N 55°06' E 014°42'0 0.0
2016-Jul-24 14:31N 55°06' E 014°42'0 0.0
2016-Jul-24 13:31N 55°06' E 014°42'0 0.0
2016-Jul-24 12:31N 55°06' E 014°42'0 0.0
2016-Jul-24 11:28N 55°06' E 014°42'0 0.0
2016-Jul-24 10:31N 55°06' E 014°42'0 0.0
2016-Jul-24 09:31N 55°06' E 014°42'0 0.0
2016-Jul-24 08:28N 55°06' E 014°42'0 0.0
2016-Jul-24 07:34N 55°06' E 014°42'0 0.0
2016-Jul-24 06:33N 55°06' E 014°42'0 0.0
2016-Jul-24 05:33N 55°06' E 014°42'0 0.0
2016-Jul-24 04:33N 55°06' E 014°42'0 0.0
2016-Jul-24 03:33N 55°06' E 014°42'0 0.0
2016-Jul-24 02:33N 55°06' E 014°42'0 0.0
2016-Jul-24 01:33N 55°06' E 014°42'0 0.0
2016-Jul-24 00:33N 55°06' E 014°42'0 0.0
2016-Jul-23 23:33N 55°06' E 014°42'0 0.0
2016-Jul-23 22:33N 55°06' E 014°42'0 0.0
2016-Jul-23 21:33N 55°06' E 014°42'0 0.0
2016-Jul-23 20:33N 55°06' E 014°42'0 0.0
2016-Jul-23 19:33N 55°06' E 014°42'0 0.0
2016-Jul-23 18:33N 55°06' E 014°42'0 0.0
2016-Jul-23 17:33N 55°06' E 014°42'0 0.0
2016-Jul-23 16:33N 55°06' E 014°42'0 0.0
2016-Jul-23 15:33N 55°06' E 014°42'0 0.0
2016-Jul-23 14:33N 55°06' E 014°42'0 0.0
2016-Jul-23 13:33N 55°06' E 014°42'0 0.0
2016-Jul-23 12:33N 55°06' E 014°42'0 0.0
2016-Jul-23 11:33N 55°06' E 014°42'0 0.0
2016-Jul-23 10:33N 55°06' E 014°42'0 0.0
2016-Jul-23 09:33N 55°06' E 014°42'0 0.0
2016-Jul-23 08:33N 55°06' E 014°42'0 0.0
2016-Jul-23 07:33N 55°06' E 014°42'0 0.0
2016-Jul-23 06:33N 55°06' E 014°42'5 2.3
2016-Jul-23 04:33N 55°01' E 014°45'8 8.3
2016-Jul-23 03:33N 54°59' E 014°58'8 7.9
2016-Jul-23 02:33N 54°59' E 015°12'8 8.1
2016-Jul-23 01:33N 55°03' E 015°24'8 8.1
2016-Jul-23 00:33N 55°08' E 015°35'9 8.3
2016-Jul-22 23:32N 55°13' E 015°48'  
2016-Jul-20 14:17N 59°30' E 023°55'19 9.7
2016-Jul-20 12:21N 59°38' E 024°28'8 9.9
2016-Jul-20 11:32N 59°38' E 024°44'  

Dump ship's entire track history